createdAt,value
2023-03-07T00:00:56.338Z,62.94
2023-03-07T00:03:26.166Z,63.07
2023-03-07T00:06:03.810Z,63.89
2023-03-07T00:08:35.210Z,66.96
2023-03-07T00:11:09.962Z,67.83
2023-03-07T00:13:40.857Z,70.03
2023-03-07T00:16:16.278Z,73.87
2023-03-07T00:18:47.829Z,74.78
2023-03-07T00:21:21.308Z,76.93
2023-03-07T00:23:53.452Z,76.37
2023-03-07T00:26:26.381Z,82.53
2023-03-07T00:28:57.949Z,78.76
2023-03-07T00:31:28.992Z,83.53
2023-03-07T00:34:00.006Z,85.72
2023-03-07T00:36:29.960Z,87.41
2023-03-07T00:38:59.706Z,88.95
2023-03-07T00:41:31.338Z,84.50
2023-03-07T00:44:01.153Z,81.41
2023-03-07T00:46:32.706Z,82.18
2023-03-07T00:49:03.237Z,80.25
2023-03-07T00:51:34.801Z,80.26
2023-03-07T00:54:06.491Z,78.29
2023-03-07T00:56:38.223Z,76.93
2023-03-07T00:59:11.955Z,78.93
2023-03-07T01:01:42.949Z,84.30
2023-03-07T01:04:12.419Z,85.18
2023-03-07T01:06:42.866Z,91.95
2023-03-07T01:09:14.632Z,93.84
2023-03-07T01:11:47.875Z,90.92
2023-03-07T01:14:20.381Z,93.56
2023-03-07T01:16:50.570Z,90.84
2023-03-07T01:19:20.944Z,95.74
2023-03-07T01:21:52.531Z,95.21
2023-03-07T01:24:23.041Z,96.79
2023-03-07T01:26:54.449Z,89.47
2023-03-07T01:29:27.737Z,88.43
2023-03-07T01:31:58.257Z,96.45
2023-03-07T01:34:29.055Z,98.67
2023-03-07T01:37:01.196Z,98.95
2023-03-07T01:39:31.655Z,97.29
2023-03-07T01:42:06.678Z,98.61
2023-03-07T01:45:07.168Z,99.72
2023-03-07T01:47:47.554Z,100.00
2023-03-07T01:50:20.026Z,98.70
2023-03-07T01:53:01.330Z,95.39
2023-03-07T01:55:35.121Z,93.89
2023-03-07T01:58:17.849Z,95.11
2023-03-07T02:00:48.861Z,97.89
2023-03-07T02:03:36.234Z,96.57
2023-03-07T02:06:13.681Z,97.29
2023-03-07T02:08:50.360Z,98.30
2023-03-07T02:11:21.192Z,100.00
2023-03-07T02:13:52.556Z,100.00
2023-03-07T02:16:23.254Z,100.00
2023-03-07T02:18:54.494Z,100.00
2023-03-07T02:21:51.833Z,100.00
2023-03-07T02:24:47.986Z,100.00
2023-03-07T02:27:20.436Z,100.00
2023-03-07T02:29:51.220Z,100.00
2023-03-07T02:32:23.213Z,100.00
2023-03-07T02:34:53.912Z,100.00
2023-03-07T02:37:34.319Z,100.00
2023-03-07T02:40:14.702Z,100.00
2023-03-07T02:42:49.560Z,100.00
2023-03-07T02:45:21.555Z,100.00
2023-03-07T02:47:56.152Z,100.00
2023-03-07T02:50:31.562Z,100.00
2023-03-07T02:53:04.424Z,100.00
2023-03-07T02:55:37.076Z,100.00
2023-03-07T02:58:09.066Z,100.00
2023-03-07T03:00:40.736Z,100.00
2023-03-07T03:03:12.631Z,100.00
2023-03-07T03:05:44.537Z,100.00
2023-03-07T03:08:17.117Z,100.00
2023-03-07T03:10:54.946Z,100.00
2023-03-07T03:13:28.583Z,100.00
2023-03-07T03:16:01.061Z,100.00
2023-03-07T03:18:32.239Z,100.00
2023-03-07T03:21:09.156Z,100.00
2023-03-07T03:23:39.752Z,100.00
2023-03-07T03:26:12.560Z,100.00
2023-03-07T03:28:47.059Z,100.00
2023-03-07T03:31:19.257Z,100.00
2023-03-07T03:33:52.953Z,100.00
2023-03-07T03:36:26.747Z,100.00
2023-03-07T03:39:00.040Z,100.00
2023-03-07T03:41:29.855Z,100.00
2023-03-07T03:44:00.821Z,100.00
2023-03-07T03:46:32.096Z,100.00
2023-03-07T03:49:07.609Z,100.00
2023-03-07T03:51:38.409Z,100.00
2023-03-07T03:54:08.694Z,100.00
2023-03-07T03:56:39.567Z,100.00
2023-03-07T03:59:09.004Z,100.00
2023-03-07T04:01:39.223Z,100.00
2023-03-07T04:04:10.442Z,100.00
2023-03-07T04:06:40.560Z,100.00
2023-03-07T04:09:11.280Z,100.00
2023-03-07T04:11:44.687Z,100.00
2023-03-07T04:14:15.088Z,100.00
2023-03-07T04:16:45.606Z,100.00
2023-03-07T04:19:15.951Z,100.00
2023-03-07T04:21:45.574Z,100.00
2023-03-07T04:24:18.045Z,100.00
2023-03-07T04:26:47.904Z,100.00
2023-03-07T04:29:18.759Z,100.00
2023-03-07T04:31:56.116Z,100.00
2023-03-07T04:34:26.925Z,100.00
2023-03-07T04:36:55.794Z,100.00
2023-03-07T04:39:25.678Z,100.00
2023-03-07T04:41:55.315Z,100.00
2023-03-07T04:44:25.874Z,100.00
2023-03-07T04:46:54.849Z,100.00
2023-03-07T04:49:24.403Z,100.00
2023-03-07T04:51:54.579Z,100.00
2023-03-07T04:54:24.068Z,100.00
2023-03-07T04:56:54.289Z,100.00
2023-03-07T04:59:24.418Z,100.00
2023-03-07T05:01:53.807Z,100.00
2023-03-07T05:04:23.090Z,100.00
2023-03-07T05:06:53.031Z,100.00
2023-03-07T05:09:21.800Z,100.00
2023-03-07T05:11:53.508Z,100.00
2023-03-07T05:14:22.948Z,100.00
2023-03-07T05:16:51.863Z,100.00
2023-03-07T05:19:21.878Z,100.00
2023-03-07T05:21:51.939Z,100.00
2023-03-07T05:24:22.317Z,100.00
2023-03-07T05:26:51.739Z,100.00
2023-03-07T05:29:21.127Z,100.00
2023-03-07T05:31:50.117Z,100.00
2023-03-07T05:34:19.320Z,100.00
2023-03-07T05:36:49.190Z,100.00
2023-03-07T05:39:18.834Z,100.00
2023-03-07T05:41:47.828Z,100.00
2023-03-07T05:44:17.946Z,100.00
2023-03-07T05:46:47.040Z,100.00
2023-03-07T05:49:16.460Z,100.00
2023-03-07T05:51:45.646Z,100.00
2023-03-07T05:54:15.001Z,100.00
2023-03-07T05:56:43.936Z,100.00
2023-03-07T05:59:15.800Z,100.00
2023-03-07T06:01:46.121Z,100.00
2023-03-07T06:04:15.547Z,100.00
2023-03-07T06:06:44.730Z,100.00
2023-03-07T06:09:13.816Z,100.00
2023-03-07T06:11:42.705Z,100.00
2023-03-07T06:14:12.321Z,100.00
2023-03-07T06:16:41.912Z,100.00
2023-03-07T06:19:11.227Z,100.00
2023-03-07T06:21:40.121Z,100.00
2023-03-07T06:24:09.716Z,100.00
2023-03-07T06:26:38.608Z,100.00
2023-03-07T06:29:07.590Z,100.00
2023-03-07T06:31:36.425Z,100.00
2023-03-07T06:34:05.578Z,100.00
2023-03-07T06:36:35.091Z,100.00
2023-03-07T06:39:04.380Z,100.00
2023-03-07T06:41:33.788Z,100.00
2023-03-07T06:44:03.403Z,100.00
2023-03-07T06:46:35.077Z,100.00
2023-03-07T06:49:08.247Z,100.00
2023-03-07T06:51:38.091Z,100.00
2023-03-07T06:54:07.766Z,100.00
2023-03-07T06:56:36.680Z,100.00
2023-03-07T06:59:05.542Z,100.00
2023-03-07T07:01:35.967Z,100.00
2023-03-07T07:04:05.478Z,100.00
2023-03-07T07:06:34.261Z,100.00
2023-03-07T07:09:07.143Z,100.00
2023-03-07T07:11:39.225Z,100.00
2023-03-07T07:14:12.667Z,100.00
2023-03-07T07:16:41.905Z,100.00
2023-03-07T07:19:10.998Z,100.00
2023-03-07T07:21:39.911Z,100.00
2023-03-07T07:24:12.094Z,100.00
2023-03-07T07:26:41.053Z,100.00
2023-03-07T07:29:09.940Z,100.00
2023-03-07T07:31:39.375Z,100.00
2023-03-07T07:34:08.947Z,100.00
2023-03-07T07:36:38.510Z,100.00
2023-03-07T07:39:08.342Z,100.00
2023-03-07T07:41:38.392Z,100.00
2023-03-07T07:44:07.804Z,100.00
2023-03-07T07:46:40.672Z,100.00
2023-03-07T07:49:10.699Z,99.88
2023-03-07T07:51:41.408Z,98.91
2023-03-07T07:54:10.831Z,98.62
2023-03-07T07:56:39.532Z,96.82
2023-03-07T07:59:08.605Z,95.98
2023-03-07T08:01:37.699Z,95.73
2023-03-07T08:04:06.602Z,96.07
2023-03-07T08:06:36.000Z,95.06
2023-03-07T08:09:05.763Z,94.20
2023-03-07T08:11:34.974Z,92.10
2023-03-07T08:14:03.934Z,91.31
2023-03-07T08:16:32.903Z,90.03
2023-03-07T08:19:02.088Z,88.34
2023-03-07T08:21:31.748Z,87.47
2023-03-07T08:24:00.491Z,88.69
2023-03-07T08:26:29.476Z,90.62
2023-03-07T08:28:59.420Z,91.25
2023-03-07T08:31:28.507Z,91.48
2023-03-07T08:33:58.098Z,92.08
2023-03-07T08:36:26.897Z,91.39
2023-03-07T08:38:55.883Z,90.50
2023-03-07T08:41:24.667Z,90.60
2023-03-07T08:43:54.122Z,90.30
2023-03-07T08:46:23.718Z,89.77
2023-03-07T08:48:52.970Z,88.93
2023-03-07T08:51:21.552Z,88.85
2023-03-07T08:53:50.446Z,87.57
2023-03-07T08:56:20.311Z,87.46
2023-03-07T08:58:52.312Z,87.28
2023-03-07T09:01:21.167Z,87.36
2023-03-07T09:03:50.092Z,87.95
2023-03-07T09:06:21.508Z,87.83
2023-03-07T09:08:51.561Z,89.36
2023-03-07T09:11:22.100Z,89.50
2023-03-07T09:13:52.787Z,92.64
2023-03-07T09:16:23.080Z,95.71
2023-03-07T09:18:52.550Z,95.26
2023-03-07T09:21:21.470Z,95.81
2023-03-07T09:23:50.855Z,97.11
2023-03-07T09:26:19.634Z,98.66
2023-03-07T09:28:48.432Z,98.78
2023-03-07T09:31:17.560Z,98.12
2023-03-07T09:33:47.144Z,98.82
2023-03-07T09:36:18.364Z,99.75
2023-03-07T09:38:48.449Z,99.79
2023-03-07T09:41:57.861Z,99.92
2023-03-07T09:44:46.286Z,99.98
2023-03-07T09:48:07.505Z,99.44
2023-03-07T09:50:59.325Z,98.42
2023-03-07T09:53:39.473Z,97.41
2023-03-07T09:56:47.282Z,96.66
2023-03-07T09:59:24.533Z,95.36
2023-03-07T10:02:23.563Z,92.36
2023-03-07T10:04:59.325Z,91.92
2023-03-07T10:07:29.845Z,91.03
2023-03-07T10:10:02.327Z,90.47
2023-03-07T10:12:49.338Z,89.79
2023-03-07T10:15:40.201Z,89.61
2023-03-07T10:18:14.466Z,89.80
2023-03-07T10:20:48.263Z,89.70
2023-03-07T10:23:39.196Z,89.05
2023-03-07T10:26:46.705Z,88.75
2023-03-07T10:29:19.401Z,87.62
2023-03-07T10:31:51.778Z,87.29
2023-03-07T10:34:30.148Z,85.75
2023-03-07T10:37:21.145Z,85.89
2023-03-07T10:39:56.780Z,83.09
2023-03-07T10:42:32.369Z,81.96
2023-03-07T10:45:02.143Z,82.46
2023-03-07T10:47:31.229Z,81.12
2023-03-07T10:50:40.977Z,81.67
2023-03-07T10:53:32.502Z,77.79
2023-03-07T10:56:21.456Z,74.53
2023-03-07T10:59:10.735Z,74.15
2023-03-07T11:01:54.665Z,71.93
2023-03-07T11:04:27.685Z,71.97
2023-03-07T11:07:02.890Z,71.96
2023-03-07T11:09:35.996Z,71.63
2023-03-07T11:12:10.704Z,71.36
2023-03-07T11:14:47.172Z,70.81
2023-03-07T11:17:41.363Z,70.48
2023-03-07T11:20:31.152Z,70.93
2023-03-07T11:23:38.630Z,68.24
2023-03-07T11:26:22.929Z,67.03
2023-03-07T11:29:25.362Z,67.22
2023-03-07T11:32:05.909Z,66.94
2023-03-07T11:34:44.450Z,66.72
2023-03-07T11:37:25.123Z,67.00
2023-03-07T11:39:53.905Z,67.17
2023-03-07T11:42:34.668Z,67.60
2023-03-07T11:45:28.332Z,66.20
2023-03-07T11:48:27.646Z,65.90
2023-03-07T11:50:59.569Z,64.83
2023-03-07T11:53:56.345Z,64.92
2023-03-07T11:56:29.246Z,63.64
2023-03-07T11:59:19.331Z,63.30
2023-03-07T12:01:53.155Z,63.26
2023-03-07T12:04:37.279Z,63.60
2023-03-07T12:07:24.596Z,64.12
2023-03-07T12:10:38.556Z,65.28
2023-03-07T12:13:09.285Z,66.39
2023-03-07T12:15:56.018Z,67.20
2023-03-07T12:18:36.243Z,67.93
2023-03-07T12:21:26.945Z,68.28
2023-03-07T12:24:03.730Z,68.98
2023-03-07T12:26:53.977Z,69.53
2023-03-07T12:29:38.576Z,70.18
2023-03-07T12:32:24.561Z,71.24
2023-03-07T12:35:01.853Z,71.35
2023-03-07T12:38:14.075Z,71.63
2023-03-07T12:40:48.934Z,71.80
2023-03-07T12:43:28.013Z,73.78
2023-03-07T12:46:12.784Z,72.78
2023-03-07T12:48:46.484Z,72.53
2023-03-07T12:51:37.394Z,73.40
2023-03-07T12:54:28.713Z,76.27
2023-03-07T12:56:57.602Z,76.00
2023-03-07T12:59:28.035Z,75.92
2023-03-07T13:02:11.145Z,76.51
2023-03-07T13:04:44.938Z,77.91
2023-03-07T13:07:18.242Z,79.38
2023-03-07T13:09:49.281Z,80.18
2023-03-07T13:12:22.164Z,81.91
2023-03-07T13:14:55.565Z,81.41
2023-03-07T13:17:27.524Z,82.46
2023-03-07T13:20:15.708Z,82.32
2023-03-07T13:22:44.542Z,81.71
2023-03-07T13:25:27.343Z,81.47
2023-03-07T13:28:01.904Z,82.33
2023-03-07T13:30:34.275Z,80.94
2023-03-07T13:33:27.147Z,81.72
2023-03-07T13:36:01.306Z,80.70
2023-03-07T13:38:44.483Z,80.05
2023-03-07T13:41:14.262Z,79.78
2023-03-07T13:43:45.610Z,79.26
2023-03-07T13:46:46.754Z,79.77
2023-03-07T13:49:36.141Z,79.80
2023-03-07T13:52:27.518Z,80.06
2023-03-07T13:54:58.582Z,79.64
2023-03-07T13:57:35.372Z,79.49
2023-03-07T14:00:25.352Z,79.84
2023-03-07T14:02:55.170Z,80.42
2023-03-07T14:05:24.826Z,79.49
2023-03-07T14:07:54.182Z,79.73
2023-03-07T14:10:37.815Z,79.71
2023-03-07T14:13:25.042Z,80.06
2023-03-07T14:16:05.738Z,79.94
2023-03-07T14:18:53.837Z,81.52
2023-03-07T14:21:40.853Z,81.20
2023-03-07T14:24:29.616Z,80.59
2023-03-07T14:27:03.323Z,81.03
2023-03-07T14:29:32.003Z,81.00
2023-03-07T14:32:01.300Z,81.06
2023-03-07T14:34:35.998Z,80.83
2023-03-07T14:37:12.808Z,80.96
2023-03-07T14:39:52.238Z,80.68
2023-03-07T14:42:29.118Z,80.79
2023-03-07T14:45:10.087Z,81.51
2023-03-07T14:47:44.509Z,80.86
2023-03-07T14:50:19.179Z,81.67
2023-03-07T14:52:50.180Z,81.30
2023-03-07T14:55:24.951Z,81.35
2023-03-07T14:57:55.441Z,81.64
2023-03-07T15:00:29.260Z,82.75
2023-03-07T15:03:08.422Z,83.37
2023-03-07T15:05:47.599Z,84.51
2023-03-07T15:08:23.152Z,83.92
2023-03-07T15:11:04.419Z,84.03
2023-03-07T15:13:37.814Z,84.87
2023-03-07T15:16:12.482Z,84.95
2023-03-07T15:18:47.472Z,86.21
2023-03-07T15:21:23.753Z,86.06
2023-03-07T15:23:58.399Z,85.31
2023-03-07T15:26:28.695Z,85.69
2023-03-07T15:29:01.887Z,86.37
2023-03-07T15:31:48.336Z,86.45
2023-03-07T15:34:33.680Z,86.46
2023-03-07T15:37:22.668Z,86.04
2023-03-07T15:40:10.170Z,88.46
2023-03-07T15:43:18.776Z,86.56
2023-03-07T15:46:02.093Z,86.18
2023-03-07T15:48:36.317Z,86.08
2023-03-07T15:51:11.473Z,89.51
2023-03-07T15:53:42.292Z,87.17
2023-03-07T15:56:30.802Z,86.02
2023-03-07T15:59:04.141Z,86.50
2023-03-07T16:01:33.363Z,88.66
2023-03-07T16:04:04.325Z,88.77
2023-03-07T16:06:39.304Z,89.25
2023-03-07T16:09:13.219Z,88.36
2023-03-07T16:11:42.720Z,91.64
2023-03-07T16:14:26.558Z,91.41
2023-03-07T16:17:04.934Z,87.95
2023-03-07T16:19:33.662Z,88.39
2023-03-07T16:22:02.240Z,89.52
2023-03-07T16:24:31.037Z,89.73
2023-03-07T16:27:00.438Z,88.78
2023-03-07T16:29:30.034Z,88.58
2023-03-07T16:32:01.629Z,91.16
2023-03-07T16:34:30.485Z,92.04
2023-03-07T16:36:59.081Z,92.66
2023-03-07T16:39:28.066Z,95.48
2023-03-07T16:41:56.736Z,96.97
2023-03-07T16:44:25.729Z,96.40
2023-03-07T16:47:08.728Z,94.97
2023-03-07T16:49:37.230Z,94.90
2023-03-07T16:52:06.863Z,93.93
2023-03-07T16:54:36.951Z,93.06
2023-03-07T16:57:11.791Z,94.54
2023-03-07T16:59:44.772Z,93.05
2023-03-07T17:02:17.577Z,92.92
2023-03-07T17:04:46.393Z,92.97
2023-03-07T17:07:19.152Z,92.68
2023-03-07T17:09:48.430Z,92.44
2023-03-07T17:12:21.078Z,93.71
2023-03-07T17:14:50.135Z,93.19
2023-03-07T17:17:27.893Z,92.19
2023-03-07T17:19:56.785Z,92.20
2023-03-07T17:22:25.882Z,92.16
2023-03-07T17:24:54.869Z,92.30
2023-03-07T17:27:23.772Z,92.57
2023-03-07T17:29:54.981Z,92.82
2023-03-07T17:32:23.659Z,94.77
2023-03-07T17:34:54.224Z,93.21
2023-03-07T17:37:22.800Z,95.36
2023-03-07T17:39:51.496Z,95.71
2023-03-07T17:42:20.805Z,97.33
2023-03-07T17:44:49.377Z,99.59
2023-03-07T17:47:18.383Z,100.00
2023-03-07T17:49:48.180Z,100.00
2023-03-07T17:52:16.864Z,100.00
2023-03-07T17:54:46.276Z,99.68
2023-03-07T17:57:16.090Z,100.00
2023-03-07T17:59:44.784Z,100.00
2023-03-07T18:02:15.396Z,100.00
2023-03-07T18:04:43.978Z,100.00
2023-03-07T18:07:13.391Z,100.00
2023-03-07T18:09:42.271Z,100.00
2023-03-07T18:12:10.859Z,100.00
2023-03-07T18:14:40.363Z,100.00
2023-03-07T18:17:09.047Z,100.00
2023-03-07T18:19:39.278Z,100.00
2023-03-07T18:22:08.162Z,100.00
2023-03-07T18:24:36.744Z,100.00
2023-03-07T18:27:08.915Z,100.00
2023-03-07T18:29:37.722Z,100.00
2023-03-07T18:32:06.942Z,100.00
2023-03-07T18:34:35.489Z,100.00
2023-03-07T18:37:04.564Z,100.00
2023-03-07T18:39:34.276Z,100.00
2023-03-07T18:42:02.861Z,100.00
2023-03-07T18:44:31.444Z,100.00
2023-03-07T18:47:00.372Z,100.00
2023-03-07T18:49:29.016Z,100.00
2023-03-07T18:51:57.702Z,100.00
2023-03-07T18:54:26.404Z,100.00
2023-03-07T18:56:55.071Z,100.00
2023-03-07T18:59:23.883Z,100.00
2023-03-07T19:01:52.462Z,100.00
2023-03-07T19:04:21.024Z,100.00
2023-03-07T19:06:49.712Z,100.00
2023-03-07T19:09:20.672Z,100.00
2023-03-07T19:11:49.234Z,100.00
2023-03-07T19:14:18.733Z,100.00
2023-03-07T19:16:47.258Z,100.00
2023-03-07T19:19:16.112Z,100.00
2023-03-07T19:21:44.718Z,100.00
2023-03-07T19:24:13.897Z,100.00
2023-03-07T19:26:43.610Z,100.00
2023-03-07T19:29:13.335Z,100.00
2023-03-07T19:31:44.354Z,100.00
2023-03-07T19:34:13.168Z,100.00
2023-03-07T19:36:42.149Z,100.00
2023-03-07T19:39:20.412Z,100.00
2023-03-07T19:41:51.380Z,100.00
2023-03-07T19:44:19.964Z,100.00
2023-03-07T19:46:48.664Z,100.00
2023-03-07T19:49:17.849Z,100.00
2023-03-07T19:51:46.530Z,100.00
2023-03-07T19:54:15.828Z,100.00
2023-03-07T19:56:45.949Z,100.00
2023-03-07T19:59:14.628Z,100.00
2023-03-07T20:01:43.682Z,100.00
2023-03-07T20:04:14.512Z,100.00
2023-03-07T20:06:44.070Z,100.00
2023-03-07T20:09:13.576Z,100.00
2023-03-07T20:11:45.742Z,100.00
2023-03-07T20:14:14.642Z,100.00
2023-03-07T20:16:43.114Z,100.00
2023-03-07T20:19:11.803Z,100.00
2023-03-07T20:21:40.998Z,100.00
2023-03-07T20:24:09.698Z,100.00
2023-03-07T20:26:39.497Z,100.00
2023-03-07T20:29:09.577Z,100.00
2023-03-07T20:31:39.637Z,100.00
2023-03-07T20:34:08.644Z,100.00
2023-03-07T20:36:38.249Z,100.00
2023-03-07T20:39:13.534Z,100.00
2023-03-07T20:41:43.908Z,100.00
2023-03-07T20:44:15.857Z,100.00
2023-03-07T20:46:44.485Z,100.00
2023-03-07T20:49:15.452Z,100.00
2023-03-07T20:51:44.799Z,100.00
2023-03-07T20:54:15.862Z,100.00
2023-03-07T20:56:46.808Z,100.00
2023-03-07T20:59:18.356Z,100.00
2023-03-07T21:01:47.861Z,100.00
2023-03-07T21:04:20.198Z,100.00
2023-03-07T21:06:49.810Z,100.00
2023-03-07T21:09:19.633Z,100.00
2023-03-07T21:11:50.162Z,100.00
2023-03-07T21:14:20.385Z,100.00
2023-03-07T21:16:48.850Z,100.00
2023-03-07T21:19:17.956Z,100.00
2023-03-07T21:21:46.644Z,100.00
2023-03-07T21:24:16.272Z,100.00
2023-03-07T21:26:45.043Z,100.00
2023-03-07T21:29:14.437Z,100.00
2023-03-07T21:31:43.168Z,100.00
2023-03-07T21:34:14.093Z,100.00
2023-03-07T21:36:43.153Z,100.00
2023-03-07T21:39:12.360Z,100.00
2023-03-07T21:41:41.337Z,100.00
2023-03-07T21:44:10.435Z,100.00
2023-03-07T21:46:39.327Z,100.00
2023-03-07T21:49:08.119Z,100.00
2023-03-07T21:51:36.894Z,100.00
2023-03-07T21:54:05.479Z,100.00
2023-03-07T21:56:34.678Z,100.00
2023-03-07T21:59:03.468Z,100.00
2023-03-07T22:01:32.306Z,100.00
2023-03-07T22:04:01.322Z,100.00
2023-03-07T22:06:30.337Z,100.00
2023-03-07T22:09:00.147Z,100.00
2023-03-07T22:11:29.041Z,100.00
2023-03-07T22:13:57.728Z,100.00
2023-03-07T22:16:26.547Z,100.00
2023-03-07T22:18:56.347Z,100.00
2023-03-07T22:21:26.914Z,100.00
2023-03-07T22:24:01.461Z,100.00
2023-03-07T22:26:31.765Z,100.00
2023-03-07T22:29:00.701Z,100.00
2023-03-07T22:31:29.709Z,100.00
2023-03-07T22:34:00.433Z,100.00
2023-03-07T22:36:29.424Z,100.00
2023-03-07T22:38:59.041Z,100.00
2023-03-07T22:41:28.876Z,100.00
2023-03-07T22:43:58.239Z,100.00
2023-03-07T22:46:27.956Z,100.00
2023-03-07T22:48:57.144Z,100.00
2023-03-07T22:51:26.955Z,100.00
2023-03-07T22:53:55.956Z,100.00
2023-03-07T22:56:28.004Z,100.00
2023-03-07T22:58:58.034Z,100.00
2023-03-07T23:01:30.432Z,100.00
2023-03-07T23:04:00.876Z,100.00
2023-03-07T23:06:31.961Z,100.00
2023-03-07T23:09:02.582Z,100.00
2023-03-07T23:11:33.972Z,100.00
2023-03-07T23:14:05.073Z,100.00
2023-03-07T23:16:36.710Z,100.00
2023-03-07T23:19:06.774Z,100.00
2023-03-07T23:21:36.020Z,100.00
2023-03-07T23:24:05.774Z,100.00
2023-03-07T23:26:37.726Z,100.00
2023-03-07T23:29:08.601Z,100.00
2023-03-07T23:31:39.942Z,100.00
2023-03-07T23:34:19.633Z,100.00
2023-03-07T23:36:48.857Z,100.00
2023-03-07T23:39:19.548Z,100.00
2023-03-07T23:41:49.007Z,100.00
2023-03-07T23:44:18.089Z,100.00
2023-03-07T23:46:49.142Z,100.00
2023-03-07T23:49:18.348Z,100.00
2023-03-07T23:51:48.056Z,100.00
2023-03-07T23:54:17.751Z,100.00
2023-03-07T23:56:46.980Z,100.00
2023-03-07T23:59:16.817Z,100.00
